sensor_id;sensor_type;location;lat;lon;timestamp;P1;durP1;ratioP1;P2;durP2;ratioP2
69087;SDS011;56190;43.562;5.036;2023-03-01T00:01:45;19.73;;;17.27;;
69087;SDS011;56190;43.562;5.036;2023-03-01T00:04:10;79.22;;;52.28;;
69087;SDS011;56190;43.562;5.036;2023-03-01T00:06:36;204.55;;;133.50;;
69087;SDS011;56190;43.562;5.036;2023-03-01T00:09:02;156.30;;;100.50;;
69087;SDS011;56190;43.562;5.036;2023-03-01T00:11:28;163.25;;;111.22;;
69087;SDS011;56190;43.562;5.036;2023-03-01T00:13:54;121.47;;;78.60;;
69087;SDS011;56190;43.562;5.036;2023-03-01T00:16:21;26.63;;;23.77;;
69087;SDS011;56190;43.562;5.036;2023-03-01T00:18:47;22.73;;;20.33;;
69087;SDS011;56190;43.562;5.036;2023-03-01T00:21:12;42.80;;;38.65;;
69087;SDS011;56190;43.562;5.036;2023-03-01T00:23:38;31.92;;;29.05;;
69087;SDS011;56190;43.562;5.036;2023-03-01T00:26:06;36.50;;;33.22;;
69087;SDS011;56190;43.562;5.036;2023-03-01T00:28:32;65.03;;;59.45;;
69087;SDS011;56190;43.562;5.036;2023-03-01T00:31:02;26.08;;;23.73;;
69087;SDS011;56190;43.562;5.036;2023-03-01T00:33:27;19.10;;;17.20;;
69087;SDS011;56190;43.562;5.036;2023-03-01T00:35:53;21.45;;;19.45;;
69087;SDS011;56190;43.562;5.036;2023-03-01T00:38:18;18.92;;;17.08;;
69087;SDS011;56190;43.562;5.036;2023-03-01T00:40:43;21.45;;;19.35;;
69087;SDS011;56190;43.562;5.036;2023-03-01T00:43:08;18.42;;;16.52;;
69087;SDS011;56190;43.562;5.036;2023-03-01T00:45:35;17.73;;;15.75;;
69087;SDS011;56190;43.562;5.036;2023-03-01T00:48:00;17.58;;;15.80;;
69087;SDS011;56190;43.562;5.036;2023-03-01T00:50:25;17.63;;;15.77;;
69087;SDS011;56190;43.562;5.036;2023-03-01T00:52:54;17.65;;;15.77;;
69087;SDS011;56190;43.562;5.036;2023-03-01T00:55:20;16.90;;;15.18;;
69087;SDS011;56190;43.562;5.036;2023-03-01T00:57:45;16.15;;;14.50;;
69087;SDS011;56190;43.562;5.036;2023-03-01T01:00:10;15.80;;;14.18;;
69087;SDS011;56190;43.562;5.036;2023-03-01T01:02:36;16.30;;;14.68;;
69087;SDS011;56190;43.562;5.036;2023-03-01T01:05:01;16.00;;;14.38;;
69087;SDS011;56190;43.562;5.036;2023-03-01T01:07:27;15.77;;;14.18;;
69087;SDS011;56190;43.562;5.036;2023-03-01T01:09:52;17.02;;;15.32;;
69087;SDS011;56190;43.562;5.036;2023-03-01T01:12:17;16.15;;;14.52;;
69087;SDS011;56190;43.562;5.036;2023-03-01T01:14:42;16.60;;;15.00;;
69087;SDS011;56190;43.562;5.036;2023-03-01T01:17:08;15.68;;;14.07;;
69087;SDS011;56190;43.562;5.036;2023-03-01T01:19:34;17.17;;;15.38;;
69087;SDS011;56190;43.562;5.036;2023-03-01T01:21:59;15.88;;;14.20;;
69087;SDS011;56190;43.562;5.036;2023-03-01T01:24:24;17.55;;;15.13;;
69087;SDS011;56190;43.562;5.036;2023-03-01T01:26:49;17.45;;;15.65;;
69087;SDS011;56190;43.562;5.036;2023-03-01T01:29:15;17.02;;;15.23;;
69087;SDS011;56190;43.562;5.036;2023-03-01T01:31:41;17.17;;;15.38;;
69087;SDS011;56190;43.562;5.036;2023-03-01T01:34:07;17.60;;;15.70;;
69087;SDS011;56190;43.562;5.036;2023-03-01T01:36:33;17.80;;;15.90;;
69087;SDS011;56190;43.562;5.036;2023-03-01T01:38:58;17.45;;;15.65;;
69087;SDS011;56190;43.562;5.036;2023-03-01T01:41:24;16.90;;;15.10;;
69087;SDS011;56190;43.562;5.036;2023-03-01T01:44:09;18.42;;;16.52;;
69087;SDS011;56190;43.562;5.036;2023-03-01T01:46:36;18.08;;;16.17;;
69087;SDS011;56190;43.562;5.036;2023-03-01T01:49:04;17.35;;;15.55;;
69087;SDS011;56190;43.562;5.036;2023-03-01T01:51:35;17.60;;;15.73;;
69087;SDS011;56190;43.562;5.036;2023-03-01T01:54:03;16.38;;;14.65;;
69087;SDS011;56190;43.562;5.036;2023-03-01T01:56:30;17.90;;;15.95;;
69087;SDS011;56190;43.562;5.036;2023-03-01T01:58:56;19.25;;;16.05;;
69087;SDS011;56190;43.562;5.036;2023-03-01T02:01:21;17.92;;;15.77;;
69087;SDS011;56190;43.562;5.036;2023-03-01T02:03:47;18.42;;;16.17;;
69087;SDS011;56190;43.562;5.036;2023-03-01T02:06:17;18.73;;;16.75;;
69087;SDS011;56190;43.562;5.036;2023-03-01T02:08:44;18.45;;;16.55;;
69087;SDS011;56190;43.562;5.036;2023-03-01T02:11:10;17.75;;;15.85;;
69087;SDS011;56190;43.562;5.036;2023-03-01T02:13:36;19.15;;;17.15;;
69087;SDS011;56190;43.562;5.036;2023-03-01T02:16:05;18.38;;;16.38;;
69087;SDS011;56190;43.562;5.036;2023-03-01T02:18:32;19.00;;;17.10;;
69087;SDS011;56190;43.562;5.036;2023-03-01T02:23:26;18.50;;;16.60;;
69087;SDS011;56190;43.562;5.036;2023-03-01T02:26:01;18.65;;;16.73;;
69087;SDS011;56190;43.562;5.036;2023-03-01T02:28:33;19.10;;;16.13;;
69087;SDS011;56190;43.562;5.036;2023-03-01T02:30:59;19.13;;;17.02;;
69087;SDS011;56190;43.562;5.036;2023-03-01T02:33:43;18.83;;;16.92;;
69087;SDS011;56190;43.562;5.036;2023-03-01T02:36:10;19.25;;;17.25;;
69087;SDS011;56190;43.562;5.036;2023-03-01T02:38:38;18.83;;;16.83;;
69087;SDS011;56190;43.562;5.036;2023-03-01T02:41:03;17.65;;;15.82;;
69087;SDS011;56190;43.562;5.036;2023-03-01T02:43:31;17.85;;;16.02;;
69087;SDS011;56190;43.562;5.036;2023-03-01T02:45:58;20.20;;;17.50;;
69087;SDS011;56190;43.562;5.036;2023-03-01T02:48:23;18.58;;;16.65;;
69087;SDS011;56190;43.562;5.036;2023-03-01T02:56:08;19.48;;;17.38;;
69087;SDS011;56190;43.562;5.036;2023-03-01T02:58:38;19.52;;;17.65;;
69087;SDS011;56190;43.562;5.036;2023-03-01T03:01:10;19.60;;;17.50;;
69087;SDS011;56190;43.562;5.036;2023-03-01T03:03:35;19.05;;;17.15;;
69087;SDS011;56190;43.562;5.036;2023-03-01T03:06:00;20.40;;;17.55;;
69087;SDS011;56190;43.562;5.036;2023-03-01T03:08:25;19.65;;;17.65;;
69087;SDS011;56190;43.562;5.036;2023-03-01T03:10:51;18.90;;;16.67;;
69087;SDS011;56190;43.562;5.036;2023-03-01T03:13:16;19.08;;;16.85;;
69087;SDS011;56190;43.562;5.036;2023-03-01T03:15:42;19.20;;;17.20;;
69087;SDS011;56190;43.562;5.036;2023-03-01T03:18:12;20.38;;;17.90;;
69087;SDS011;56190;43.562;5.036;2023-03-01T03:20:38;18.90;;;16.42;;
69087;SDS011;56190;43.562;5.036;2023-03-01T03:23:04;19.27;;;17.17;;
69087;SDS011;56190;43.562;5.036;2023-03-01T03:25:29;20.10;;;17.85;;
69087;SDS011;56190;43.562;5.036;2023-03-01T03:27:55;18.73;;;16.73;;
69087;SDS011;56190;43.562;5.036;2023-03-01T03:30:29;18.88;;;16.88;;
69087;SDS011;56190;43.562;5.036;2023-03-01T03:32:54;20.77;;;18.67;;
69087;SDS011;56190;43.562;5.036;2023-03-01T03:37:45;19.35;;;17.45;;
69087;SDS011;56190;43.562;5.036;2023-03-01T03:40:35;23.30;;;19.23;;
69087;SDS011;56190;43.562;5.036;2023-03-01T03:43:02;20.95;;;18.70;;
69087;SDS011;56190;43.562;5.036;2023-03-01T03:45:27;19.35;;;17.35;;
69087;SDS011;56190;43.562;5.036;2023-03-01T03:47:53;20.50;;;18.40;;
69087;SDS011;56190;43.562;5.036;2023-03-01T03:50:18;20.33;;;17.90;;
69087;SDS011;56190;43.562;5.036;2023-03-01T03:52:44;20.55;;;18.35;;
69087;SDS011;56190;43.562;5.036;2023-03-01T03:55:10;20.80;;;18.52;;
69087;SDS011;56190;43.562;5.036;2023-03-01T03:57:39;21.13;;;17.80;;
69087;SDS011;56190;43.562;5.036;2023-03-01T04:00:05;18.92;;;16.95;;
69087;SDS011;56190;43.562;5.036;2023-03-01T04:02:31;21.25;;;18.95;;
69087;SDS011;56190;43.562;5.036;2023-03-01T04:04:56;22.17;;;18.63;;
69087;SDS011;56190;43.562;5.036;2023-03-01T04:07:21;20.63;;;18.52;;
69087;SDS011;56190;43.562;5.036;2023-03-01T04:09:46;21.52;;;19.23;;
69087;SDS011;56190;43.562;5.036;2023-03-01T04:12:11;21.77;;;19.48;;
69087;SDS011;56190;43.562;5.036;2023-03-01T04:14:37;21.27;;;18.88;;
69087;SDS011;56190;43.562;5.036;2023-03-01T04:17:02;21.40;;;19.10;;
69087;SDS011;56190;43.562;5.036;2023-03-01T04:19:30;21.65;;;19.33;;
69087;SDS011;56190;43.562;5.036;2023-03-01T04:22:00;21.65;;;19.40;;
69087;SDS011;56190;43.562;5.036;2023-03-01T04:24:32;21.52;;;19.27;;
69087;SDS011;56190;43.562;5.036;2023-03-01T04:26:57;21.20;;;18.88;;
69087;SDS011;56190;43.562;5.036;2023-03-01T04:29:22;21.77;;;19.48;;
69087;SDS011;56190;43.562;5.036;2023-03-01T04:31:48;20.77;;;18.58;;
69087;SDS011;56190;43.562;5.036;2023-03-01T04:34:14;22.30;;;19.38;;
69087;SDS011;56190;43.562;5.036;2023-03-01T04:36:39;21.23;;;19.02;;
69087;SDS011;56190;43.562;5.036;2023-03-01T04:39:05;21.80;;;19.60;;
69087;SDS011;56190;43.562;5.036;2023-03-01T04:41:37;21.25;;;19.00;;
69087;SDS011;56190;43.562;5.036;2023-03-01T04:44:03;20.70;;;18.55;;
69087;SDS011;56190;43.562;5.036;2023-03-01T04:46:29;21.30;;;19.00;;
69087;SDS011;56190;43.562;5.036;2023-03-01T04:48:54;22.20;;;19.88;;
69087;SDS011;56190;43.562;5.036;2023-03-01T04:51:20;22.17;;;19.77;;
69087;SDS011;56190;43.562;5.036;2023-03-01T04:53:45;22.60;;;20.20;;
69087;SDS011;56190;43.562;5.036;2023-03-01T04:56:10;22.15;;;18.73;;
69087;SDS011;56190;43.562;5.036;2023-03-01T04:58:36;22.95;;;20.42;;
69087;SDS011;56190;43.562;5.036;2023-03-01T05:01:08;21.60;;;19.30;;
69087;SDS011;56190;43.562;5.036;2023-03-01T05:03:40;22.13;;;19.30;;
69087;SDS011;56190;43.562;5.036;2023-03-01T05:06:05;22.30;;;19.92;;
69087;SDS011;56190;43.562;5.036;2023-03-01T05:08:31;23.45;;;20.25;;
69087;SDS011;56190;43.562;5.036;2023-03-01T05:10:59;21.20;;;18.95;;
69087;SDS011;56190;43.562;5.036;2023-03-01T05:13:24;22.80;;;20.27;;
69087;SDS011;56190;43.562;5.036;2023-03-01T05:15:56;23.50;;;21.00;;
69087;SDS011;56190;43.562;5.036;2023-03-01T05:18:22;23.67;;;21.10;;
69087;SDS011;56190;43.562;5.036;2023-03-01T05:20:50;25.33;;;21.23;;
69087;SDS011;56190;43.562;5.036;2023-03-01T05:23:16;24.80;;;20.58;;
69087;SDS011;56190;43.562;5.036;2023-03-01T05:25:43;23.15;;;20.75;;
69087;SDS011;56190;43.562;5.036;2023-03-01T05:28:10;25.92;;;22.05;;
69087;SDS011;56190;43.562;5.036;2023-03-01T05:30:36;24.27;;;20.90;;
69087;SDS011;56190;43.562;5.036;2023-03-01T05:33:01;25.95;;;21.95;;
69087;SDS011;56190;43.562;5.036;2023-03-01T05:35:27;25.40;;;22.67;;
69087;SDS011;56190;43.562;5.036;2023-03-01T05:37:52;25.58;;;22.10;;
69087;SDS011;56190;43.562;5.036;2023-03-01T05:40:21;25.42;;;22.58;;
69087;SDS011;56190;43.562;5.036;2023-03-01T05:42:48;24.98;;;22.30;;
69087;SDS011;56190;43.562;5.036;2023-03-01T05:45:14;24.63;;;21.55;;
69087;SDS011;56190;43.562;5.036;2023-03-01T05:47:40;23.63;;;20.05;;
69087;SDS011;56190;43.562;5.036;2023-03-01T05:50:08;23.05;;;20.60;;
69087;SDS011;56190;43.562;5.036;2023-03-01T05:52:34;24.15;;;21.42;;
69087;SDS011;56190;43.562;5.036;2023-03-01T05:54:59;23.95;;;21.30;;
69087;SDS011;56190;43.562;5.036;2023-03-01T05:57:25;24.92;;;22.20;;
69087;SDS011;56190;43.562;5.036;2023-03-01T05:59:52;24.73;;;21.25;;
69087;SDS011;56190;43.562;5.036;2023-03-01T06:02:18;25.85;;;22.75;;
69087;SDS011;56190;43.562;5.036;2023-03-01T06:04:43;25.83;;;22.23;;
69087;SDS011;56190;43.562;5.036;2023-03-01T06:07:08;26.00;;;23.17;;
69087;SDS011;56190;43.562;5.036;2023-03-01T06:09:34;25.77;;;22.98;;
69087;SDS011;56190;43.562;5.036;2023-03-01T06:11:59;24.70;;;21.85;;
69087;SDS011;56190;43.562;5.036;2023-03-01T06:14:24;25.55;;;22.48;;
69087;SDS011;56190;43.562;5.036;2023-03-01T06:16:50;25.85;;;23.15;;
69087;SDS011;56190;43.562;5.036;2023-03-01T06:19:15;26.23;;;23.50;;
69087;SDS011;56190;43.562;5.036;2023-03-01T06:21:40;29.42;;;26.15;;
69087;SDS011;56190;43.562;5.036;2023-03-01T06:24:05;29.42;;;26.27;;
69087;SDS011;56190;43.562;5.036;2023-03-01T06:26:32;30.48;;;27.08;;
69087;SDS011;56190;43.562;5.036;2023-03-01T06:28:57;28.55;;;25.38;;
69087;SDS011;56190;43.562;5.036;2023-03-01T06:31:22;29.77;;;26.58;;
69087;SDS011;56190;43.562;5.036;2023-03-01T06:33:47;26.05;;;23.20;;
69087;SDS011;56190;43.562;5.036;2023-03-01T06:36:13;29.45;;;25.30;;
69087;SDS011;56190;43.562;5.036;2023-03-01T06:38:38;27.55;;;24.25;;
69087;SDS011;56190;43.562;5.036;2023-03-01T06:41:05;28.23;;;23.92;;
69087;SDS011;56190;43.562;5.036;2023-03-01T06:43:31;27.15;;;22.55;;
69087;SDS011;56190;43.562;5.036;2023-03-01T06:45:57;24.00;;;21.40;;
69087;SDS011;56190;43.562;5.036;2023-03-01T06:48:22;26.98;;;22.60;;
69087;SDS011;56190;43.562;5.036;2023-03-01T06:50:47;25.83;;;22.83;;
69087;SDS011;56190;43.562;5.036;2023-03-01T06:53:13;24.10;;;21.50;;
69087;SDS011;56190;43.562;5.036;2023-03-01T06:55:38;26.58;;;23.05;;
69087;SDS011;56190;43.562;5.036;2023-03-01T06:58:03;26.15;;;22.38;;
69087;SDS011;56190;43.562;5.036;2023-03-01T07:00:28;24.15;;;21.65;;
69087;SDS011;56190;43.562;5.036;2023-03-01T07:02:54;25.50;;;22.73;;
69087;SDS011;56190;43.562;5.036;2023-03-01T07:05:19;24.25;;;21.65;;
69087;SDS011;56190;43.562;5.036;2023-03-01T07:07:45;28.85;;;23.52;;
69087;SDS011;56190;43.562;5.036;2023-03-01T07:10:10;25.17;;;21.88;;
69087;SDS011;56190;43.562;5.036;2023-03-01T07:12:36;26.08;;;23.25;;
69087;SDS011;56190;43.562;5.036;2023-03-01T07:15:01;26.50;;;23.63;;
69087;SDS011;56190;43.562;5.036;2023-03-01T07:17:26;26.80;;;23.88;;
69087;SDS011;56190;43.562;5.036;2023-03-01T07:19:51;26.42;;;23.48;;
69087;SDS011;56190;43.562;5.036;2023-03-01T07:22:17;28.38;;;24.17;;
69087;SDS011;56190;43.562;5.036;2023-03-01T07:24:42;28.20;;;23.95;;
69087;SDS011;56190;43.562;5.036;2023-03-01T07:27:07;26.27;;;22.95;;
69087;SDS011;56190;43.562;5.036;2023-03-01T07:29:33;26.73;;;23.73;;
69087;SDS011;56190;43.562;5.036;2023-03-01T07:32:01;33.53;;;29.10;;
69087;SDS011;56190;43.562;5.036;2023-03-01T07:34:26;36.72;;;31.42;;
69087;SDS011;56190;43.562;5.036;2023-03-01T07:36:51;35.00;;;29.85;;
69087;SDS011;56190;43.562;5.036;2023-03-01T07:39:17;32.88;;;29.10;;
69087;SDS011;56190;43.562;5.036;2023-03-01T07:41:42;29.85;;;25.75;;
69087;SDS011;56190;43.562;5.036;2023-03-01T07:44:07;27.25;;;24.05;;
69087;SDS011;56190;43.562;5.036;2023-03-01T07:46:33;25.92;;;22.98;;
69087;SDS011;56190;43.562;5.036;2023-03-01T07:48:58;25.33;;;22.63;;
69087;SDS011;56190;43.562;5.036;2023-03-01T07:51:23;23.35;;;20.95;;
69087;SDS011;56190;43.562;5.036;2023-03-01T07:53:49;27.55;;;23.08;;
69087;SDS011;56190;43.562;5.036;2023-03-01T07:56:14;26.00;;;22.83;;
69087;SDS011;56190;43.562;5.036;2023-03-01T07:58:42;25.85;;;21.70;;
69087;SDS011;56190;43.562;5.036;2023-03-01T08:01:09;25.92;;;21.60;;
69087;SDS011;56190;43.562;5.036;2023-03-01T08:03:35;23.92;;;21.23;;
69087;SDS011;56190;43.562;5.036;2023-03-01T08:06:01;24.25;;;21.63;;
69087;SDS011;56190;43.562;5.036;2023-03-01T08:08:27;27.25;;;23.30;;
69087;SDS011;56190;43.562;5.036;2023-03-01T08:10:55;24.33;;;21.77;;
69087;SDS011;56190;43.562;5.036;2023-03-01T08:13:21;27.27;;;21.80;;
69087;SDS011;56190;43.562;5.036;2023-03-01T08:15:47;24.73;;;21.67;;
69087;SDS011;56190;43.562;5.036;2023-03-01T08:18:13;26.38;;;21.60;;
69087;SDS011;56190;43.562;5.036;2023-03-01T08:20:38;26.45;;;23.58;;
69087;SDS011;56190;43.562;5.036;2023-03-01T08:23:03;26.52;;;22.08;;
69087;SDS011;56190;43.562;5.036;2023-03-01T08:25:28;25.90;;;22.38;;
69087;SDS011;56190;43.562;5.036;2023-03-01T08:27:54;28.85;;;24.55;;
69087;SDS011;56190;43.562;5.036;2023-03-01T08:30:19;25.80;;;22.80;;
69087;SDS011;56190;43.562;5.036;2023-03-01T08:32:45;28.30;;;23.20;;
69087;SDS011;56190;43.562;5.036;2023-03-01T08:35:10;27.45;;;23.83;;
69087;SDS011;56190;43.562;5.036;2023-03-01T08:37:36;26.95;;;22.23;;
69087;SDS011;56190;43.562;5.036;2023-03-01T08:40:01;24.58;;;21.17;;
69087;SDS011;56190;43.562;5.036;2023-03-01T08:42:28;28.38;;;21.73;;
69087;SDS011;56190;43.562;5.036;2023-03-01T08:44:53;31.20;;;25.25;;
69087;SDS011;56190;43.562;5.036;2023-03-01T08:47:19;25.65;;;22.13;;
69087;SDS011;56190;43.562;5.036;2023-03-01T08:49:44;24.83;;;22.13;;
69087;SDS011;56190;43.562;5.036;2023-03-01T08:52:09;23.90;;;20.92;;
69087;SDS011;56190;43.562;5.036;2023-03-01T08:54:34;25.17;;;21.88;;
69087;SDS011;56190;43.562;5.036;2023-03-01T08:57:02;24.42;;;21.38;;
69087;SDS011;56190;43.562;5.036;2023-03-01T08:59:28;25.77;;;21.52;;
69087;SDS011;56190;43.562;5.036;2023-03-01T09:01:54;23.85;;;20.77;;
69087;SDS011;56190;43.562;5.036;2023-03-01T09:04:20;25.02;;;21.92;;
69087;SDS011;56190;43.562;5.036;2023-03-01T09:06:45;26.65;;;22.08;;
69087;SDS011;56190;43.562;5.036;2023-03-01T09:09:14;23.77;;;21.27;;
69087;SDS011;56190;43.562;5.036;2023-03-01T09:11:40;25.75;;;23.05;;
69087;SDS011;56190;43.562;5.036;2023-03-01T09:14:06;26.20;;;21.75;;
69087;SDS011;56190;43.562;5.036;2023-03-01T09:16:32;25.15;;;22.38;;
69087;SDS011;56190;43.562;5.036;2023-03-01T09:19:01;24.25;;;21.50;;
69087;SDS011;56190;43.562;5.036;2023-03-01T09:21:26;23.25;;;20.85;;
69087;SDS011;56190;43.562;5.036;2023-03-01T09:23:51;24.25;;;21.70;;
69087;SDS011;56190;43.562;5.036;2023-03-01T09:26:20;22.80;;;20.40;;
69087;SDS011;56190;43.562;5.036;2023-03-01T09:28:47;22.65;;;20.27;;
69087;SDS011;56190;43.562;5.036;2023-03-01T09:31:12;22.13;;;19.75;;
69087;SDS011;56190;43.562;5.036;2023-03-01T09:33:38;23.42;;;20.67;;
69087;SDS011;56190;43.562;5.036;2023-03-01T09:36:04;22.55;;;19.80;;
69087;SDS011;56190;43.562;5.036;2023-03-01T09:38:30;23.27;;;20.77;;
69087;SDS011;56190;43.562;5.036;2023-03-01T09:40:56;23.08;;;20.45;;
69087;SDS011;56190;43.562;5.036;2023-03-01T09:43:37;23.33;;;20.67;;
69087;SDS011;56190;43.562;5.036;2023-03-01T09:46:07;22.63;;;20.33;;
69087;SDS011;56190;43.562;5.036;2023-03-01T09:48:38;24.00;;;21.38;;
69087;SDS011;56190;43.562;5.036;2023-03-01T09:51:06;23.80;;;21.17;;
69087;SDS011;56190;43.562;5.036;2023-03-01T09:53:33;24.50;;;20.42;;
69087;SDS011;56190;43.562;5.036;2023-03-01T09:56:12;23.50;;;21.00;;
69087;SDS011;56190;43.562;5.036;2023-03-01T10:01:11;23.42;;;20.90;;
69087;SDS011;56190;43.562;5.036;2023-03-01T10:03:43;23.17;;;20.25;;
69087;SDS011;56190;43.562;5.036;2023-03-01T10:06:17;21.40;;;19.02;;
69087;SDS011;56190;43.562;5.036;2023-03-01T10:08:54;23.02;;;19.83;;
69087;SDS011;56190;43.562;5.036;2023-03-01T10:13:49;23.70;;;20.95;;
69087;SDS011;56190;43.562;5.036;2023-03-01T10:18:53;22.13;;;19.67;;
69087;SDS011;56190;43.562;5.036;2023-03-01T10:21:20;21.65;;;19.35;;
69087;SDS011;56190;43.562;5.036;2023-03-01T10:23:46;22.77;;;20.38;;
69087;SDS011;56190;43.562;5.036;2023-03-01T10:31:14;22.92;;;20.50;;
69087;SDS011;56190;43.562;5.036;2023-03-01T10:33:40;22.23;;;19.92;;
69087;SDS011;56190;43.562;5.036;2023-03-01T10:36:06;23.02;;;20.50;;
69087;SDS011;56190;43.562;5.036;2023-03-01T10:38:31;22.70;;;20.40;;
69087;SDS011;56190;43.562;5.036;2023-03-01T10:41:11;23.17;;;20.58;;
69087;SDS011;56190;43.562;5.036;2023-03-01T10:46:24;23.00;;;20.63;;
69087;SDS011;56190;43.562;5.036;2023-03-01T10:49:05;21.50;;;19.23;;
69087;SDS011;56190;43.562;5.036;2023-03-01T10:51:30;22.80;;;20.40;;
69087;SDS011;56190;43.562;5.036;2023-03-01T10:53:56;25.75;;;22.92;;
69087;SDS011;56190;43.562;5.036;2023-03-01T10:56:21;23.35;;;20.13;;
69087;SDS011;56190;43.562;5.036;2023-03-01T10:58:59;21.30;;;19.10;;
69087;SDS011;56190;43.562;5.036;2023-03-01T11:01:32;21.90;;;19.58;;
69087;SDS011;56190;43.562;5.036;2023-03-01T11:06:35;22.17;;;19.77;;
69087;SDS011;56190;43.562;5.036;2023-03-01T11:11:38;22.38;;;19.98;;
69087;SDS011;56190;43.562;5.036;2023-03-01T11:14:07;21.92;;;19.63;;
69087;SDS011;56190;43.562;5.036;2023-03-01T11:16:38;23.05;;;20.58;;
69087;SDS011;56190;43.562;5.036;2023-03-01T11:21:30;21.50;;;18.70;;
69087;SDS011;56190;43.562;5.036;2023-03-01T11:23:58;20.83;;;18.70;;
69087;SDS011;56190;43.562;5.036;2023-03-01T11:26:25;21.85;;;19.55;;
69087;SDS011;56190;43.562;5.036;2023-03-01T11:28:51;21.65;;;19.35;;
69087;SDS011;56190;43.562;5.036;2023-03-01T11:31:19;22.00;;;19.80;;
69087;SDS011;56190;43.562;5.036;2023-03-01T11:33:46;20.58;;;18.48;;
69087;SDS011;56190;43.562;5.036;2023-03-01T11:36:16;21.25;;;17.45;;
69087;SDS011;56190;43.562;5.036;2023-03-01T11:38:44;21.20;;;19.00;;
69087;SDS011;56190;43.562;5.036;2023-03-01T11:41:14;20.92;;;18.65;;
69087;SDS011;56190;43.562;5.036;2023-03-01T11:50:58;21.38;;;19.20;;
69087;SDS011;56190;43.562;5.036;2023-03-01T11:59:06;21.50;;;18.75;;
69087;SDS011;56190;43.562;5.036;2023-03-01T12:01:37;20.17;;;18.17;;
69087;SDS011;56190;43.562;5.036;2023-03-01T12:17:57;21.65;;;19.35;;
69087;SDS011;56190;43.562;5.036;2023-03-01T12:40:31;23.70;;;19.60;;
69087;SDS011;56190;43.562;5.036;2023-03-01T12:43:02;23.35;;;19.77;;
69087;SDS011;56190;43.562;5.036;2023-03-01T12:45:34;21.67;;;19.38;;
69087;SDS011;56190;43.562;5.036;2023-03-01T12:50:50;21.38;;;19.17;;
69087;SDS011;56190;43.562;5.036;2023-03-01T12:53:19;20.75;;;18.65;;
69087;SDS011;56190;43.562;5.036;2023-03-01T12:55:46;21.65;;;19.35;;
69087;SDS011;56190;43.562;5.036;2023-03-01T13:05:56;22.02;;;18.92;;
69087;SDS011;56190;43.562;5.036;2023-03-01T13:10:56;19.15;;;17.20;;
69087;SDS011;56190;43.562;5.036;2023-03-01T13:13:24;21.65;;;17.88;;
69087;SDS011;56190;43.562;5.036;2023-03-01T13:15:50;25.55;;;20.45;;
69087;SDS011;56190;43.562;5.036;2023-03-01T13:20:54;21.25;;;18.85;;
69087;SDS011;56190;43.562;5.036;2023-03-01T13:28:36;19.85;;;17.67;;
69087;SDS011;56190;43.562;5.036;2023-03-01T13:31:03;19.48;;;17.13;;
69087;SDS011;56190;43.562;5.036;2023-03-01T13:35:54;19.02;;;17.10;;
69087;SDS011;56190;43.562;5.036;2023-03-01T13:41:06;19.13;;;17.13;;
69087;SDS011;56190;43.562;5.036;2023-03-01T13:43:33;20.17;;;18.08;;
69087;SDS011;56190;43.562;5.036;2023-03-01T13:45:59;19.83;;;17.60;;
69087;SDS011;56190;43.562;5.036;2023-03-01T13:48:26;19.52;;;17.23;;
69087;SDS011;56190;43.562;5.036;2023-03-01T13:53:46;25.63;;;20.30;;
69087;SDS011;56190;43.562;5.036;2023-03-01T13:56:16;20.40;;;18.30;;
69087;SDS011;56190;43.562;5.036;2023-03-01T13:58:55;19.77;;;16.92;;
69087;SDS011;56190;43.562;5.036;2023-03-01T14:01:23;19.00;;;17.08;;
69087;SDS011;56190;43.562;5.036;2023-03-01T14:03:49;19.15;;;16.85;;
69087;SDS011;56190;43.562;5.036;2023-03-01T14:06:16;20.42;;;17.42;;
69087;SDS011;56190;43.562;5.036;2023-03-01T14:08:43;18.05;;;16.15;;
69087;SDS011;56190;43.562;5.036;2023-03-01T14:11:31;19.67;;;17.02;;
69087;SDS011;56190;43.562;5.036;2023-03-01T14:19:21;20.08;;;16.70;;
69087;SDS011;56190;43.562;5.036;2023-03-01T14:22:36;17.13;;;15.13;;
69087;SDS011;56190;43.562;5.036;2023-03-01T14:24:38;18.08;;;16.17;;
69087;SDS011;56190;43.562;5.036;2023-03-01T14:27:04;19.80;;;17.30;;
69087;SDS011;56190;43.562;5.036;2023-03-01T14:29:35;19.63;;;17.33;;
69087;SDS011;56190;43.562;5.036;2023-03-01T14:34:45;19.50;;;17.15;;
69087;SDS011;56190;43.562;5.036;2023-03-01T14:37:11;18.52;;;16.58;;
69087;SDS011;56190;43.562;5.036;2023-03-01T14:39:42;19.23;;;16.30;;
69087;SDS011;56190;43.562;5.036;2023-03-01T14:42:07;19.42;;;15.77;;
69087;SDS011;56190;43.562;5.036;2023-03-01T14:44:33;17.55;;;15.82;;
69087;SDS011;56190;43.562;5.036;2023-03-01T14:47:02;19.70;;;16.83;;
69087;SDS011;56190;43.562;5.036;2023-03-01T14:49:29;19.15;;;17.13;;
69087;SDS011;56190;43.562;5.036;2023-03-01T14:52:02;19.35;;;16.77;;
69087;SDS011;56190;43.562;5.036;2023-03-01T14:54:29;19.73;;;16.38;;
69087;SDS011;56190;43.562;5.036;2023-03-01T14:57:00;20.33;;;18.13;;
69087;SDS011;56190;43.562;5.036;2023-03-01T14:59:25;21.10;;;17.73;;
69087;SDS011;56190;43.562;5.036;2023-03-01T15:01:51;19.90;;;17.80;;
69087;SDS011;56190;43.562;5.036;2023-03-01T15:04:17;18.55;;;16.55;;
69087;SDS011;56190;43.562;5.036;2023-03-01T15:06:43;19.42;;;17.15;;
69087;SDS011;56190;43.562;5.036;2023-03-01T15:09:12;20.73;;;17.15;;
69087;SDS011;56190;43.562;5.036;2023-03-01T15:11:38;18.40;;;16.35;;
69087;SDS011;56190;43.562;5.036;2023-03-01T15:14:27;19.35;;;15.95;;
69087;SDS011;56190;43.562;5.036;2023-03-01T15:16:52;19.77;;;17.13;;
69087;SDS011;56190;43.562;5.036;2023-03-01T15:19:17;18.85;;;16.85;;
69087;SDS011;56190;43.562;5.036;2023-03-01T15:21:48;19.48;;;17.48;;
69087;SDS011;56190;43.562;5.036;2023-03-01T15:24:23;19.05;;;16.92;;
69087;SDS011;56190;43.562;5.036;2023-03-01T15:29:21;17.90;;;15.88;;
69087;SDS011;56190;43.562;5.036;2023-03-01T15:31:54;20.30;;;16.85;;
69087;SDS011;56190;43.562;5.036;2023-03-01T15:36:55;19.55;;;17.55;;
69087;SDS011;56190;43.562;5.036;2023-03-01T15:42:02;20.83;;;17.67;;
69087;SDS011;56190;43.562;5.036;2023-03-01T15:44:29;22.75;;;19.63;;
69087;SDS011;56190;43.562;5.036;2023-03-01T15:46:54;21.58;;;18.80;;
69087;SDS011;56190;43.562;5.036;2023-03-01T15:51:45;21.33;;;18.48;;
69087;SDS011;56190;43.562;5.036;2023-03-01T15:54:15;22.05;;;18.42;;
69087;SDS011;56190;43.562;5.036;2023-03-01T15:56:42;26.52;;;23.15;;
69087;SDS011;56190;43.562;5.036;2023-03-01T15:59:08;31.85;;;28.48;;
69087;SDS011;56190;43.562;5.036;2023-03-01T16:01:36;27.35;;;21.08;;
69087;SDS011;56190;43.562;5.036;2023-03-01T16:04:01;21.00;;;18.73;;
69087;SDS011;56190;43.562;5.036;2023-03-01T16:06:27;20.27;;;18.02;;
69087;SDS011;56190;43.562;5.036;2023-03-01T16:08:52;20.27;;;17.60;;
69087;SDS011;56190;43.562;5.036;2023-03-01T16:11:18;20.30;;;17.45;;
69087;SDS011;56190;43.562;5.036;2023-03-01T16:13:44;22.52;;;18.35;;
69087;SDS011;56190;43.562;5.036;2023-03-01T16:16:10;21.95;;;18.45;;
69087;SDS011;56190;43.562;5.036;2023-03-01T16:18:38;22.80;;;17.92;;
69087;SDS011;56190;43.562;5.036;2023-03-01T16:21:04;24.60;;;19.20;;
69087;SDS011;56190;43.562;5.036;2023-03-01T16:23:30;23.00;;;18.55;;
69087;SDS011;56190;43.562;5.036;2023-03-01T16:25:58;22.60;;;19.45;;
69087;SDS011;56190;43.562;5.036;2023-03-01T16:28:23;24.67;;;19.50;;